createdAt,value
2022-12-19T00:00:09.751Z,973.37
2022-12-19T00:05:09.449Z,973.4
2022-12-19T00:10:11.042Z,973.2
2022-12-19T00:15:12.820Z,973.09
2022-12-19T00:20:20.198Z,973.19
2022-12-19T00:25:16.226Z,972.9
2022-12-19T00:30:17.503Z,972.85
2022-12-19T00:35:19.605Z,972.83
2022-12-19T00:40:21.333Z,972.95
2022-12-19T00:45:23.000Z,972.99
2022-12-19T00:50:24.372Z,973.31
2022-12-19T00:55:25.705Z,973.13
2022-12-19T01:00:27.524Z,973.05
2022-12-19T01:05:29.468Z,972.89
2022-12-19T01:10:31.436Z,972.68
2022-12-19T01:15:32.575Z,972.61
2022-12-19T01:20:33.982Z,972.64
2022-12-19T01:25:35.843Z,972.72
2022-12-19T01:30:37.734Z,972.74
2022-12-19T01:35:38.820Z,972.87
2022-12-19T01:40:40.292Z,972.93
2022-12-19T01:45:45.782Z,973.06
2022-12-19T01:50:43.239Z,973.17
2022-12-19T02:20:52.604Z,973.17
2022-12-19T02:35:58.376Z,973.2
2022-12-19T02:51:02.408Z,973.26
2022-12-19T03:01:06.391Z,973.1
2022-12-19T03:06:07.863Z,973.28
2022-12-19T03:16:11.279Z,973.31
2022-12-19T03:21:13.069Z,973.32
2022-12-19T03:26:14.723Z,973.36
2022-12-19T03:31:16.704Z,973.49
2022-12-19T03:36:18.223Z,973.47
2022-12-19T03:41:20.310Z,973.45
2022-12-19T03:46:21.487Z,973.48
2022-12-19T03:51:22.798Z,973.43
2022-12-19T03:56:24.505Z,973.34
2022-12-19T04:01:26.705Z,973.38
2022-12-19T04:06:28.677Z,973.02
2022-12-19T04:11:30.618Z,972.8
2022-12-19T04:16:32.458Z,973.57
2022-12-19T04:21:33.789Z,973.69
2022-12-19T04:26:35.437Z,973.96
2022-12-19T04:31:37.362Z,973.57
2022-12-19T04:36:38.690Z,973.92
2022-12-19T04:41:40.962Z,973.6
2022-12-19T04:46:42.453Z,973.45
2022-12-19T04:51:44.098Z,973.44
2022-12-19T04:56:46.010Z,973.44
2022-12-19T05:01:47.425Z,973.65
2022-12-19T05:06:49.039Z,973.31
2022-12-19T05:11:50.434Z,973.39
2022-12-19T05:16:55.976Z,973.45
2022-12-19T05:21:53.841Z,973.39
2022-12-19T05:26:55.482Z,973.68
2022-12-19T05:31:56.952Z,973.82
2022-12-19T05:36:59.127Z,973.54
2022-12-19T05:42:00.745Z,973.34
2022-12-19T05:47:02.040Z,973.43
2022-12-19T05:52:03.201Z,973.53
2022-12-19T05:57:05.483Z,973.46
2022-12-19T06:02:06.917Z,973.4
2022-12-19T06:07:08.211Z,973.4
2022-12-19T06:12:10.337Z,973.38
2022-12-19T06:17:12.403Z,973.4
2022-12-19T06:22:13.987Z,973.39
2022-12-19T06:27:16.035Z,973.47
2022-12-19T06:32:17.227Z,973.5
2022-12-19T06:37:18.820Z,973.49
2022-12-19T06:42:21.016Z,973.46
2022-12-19T06:47:22.360Z,973.51
2022-12-19T06:52:24.438Z,973.42
2022-12-19T06:57:25.973Z,973.42
2022-12-19T07:02:27.884Z,973.41
2022-12-19T07:07:29.394Z,973.54
2022-12-19T07:12:31.246Z,973.53
2022-12-19T07:17:32.595Z,973.53
2022-12-19T07:22:34.206Z,973.51
2022-12-19T07:27:36.380Z,973.54
2022-12-19T07:32:37.625Z,973.63
2022-12-19T07:37:39.119Z,973.56
2022-12-19T07:42:40.760Z,973.58
2022-12-19T07:47:42.307Z,973.57
2022-12-19T07:52:44.167Z,973.47
2022-12-19T07:57:45.818Z,973.58
2022-12-19T08:02:47.101Z,973.59
2022-12-19T08:07:48.731Z,973.49
2022-12-19T08:12:50.181Z,973.51
2022-12-19T08:17:51.688Z,973.47
2022-12-19T08:22:53.726Z,973.41
2022-12-19T08:27:55.397Z,973.25
2022-12-19T08:32:56.595Z,973.25
2022-12-19T08:37:58.697Z,973.21
2022-12-19T08:43:00.938Z,973.13
2022-12-19T08:48:02.995Z,973.14
2022-12-19T08:53:04.194Z,973.11
2022-12-19T08:58:05.935Z,972.91
2022-12-19T09:03:07.590Z,972.87
2022-12-19T09:08:09.117Z,972.79
2022-12-19T09:13:10.618Z,972.82
2022-12-19T09:18:12.032Z,972.8
2022-12-19T09:23:13.788Z,972.8
2022-12-19T09:28:27.180Z,972.84
2022-12-19T09:33:16.680Z,972.93
2022-12-19T09:38:18.582Z,972.88
2022-12-19T09:43:20.318Z,972.89
2022-12-19T09:48:24.331Z,972.96
2022-12-19T09:53:24.210Z,972.93
2022-12-19T09:58:25.590Z,972.94
2022-12-19T10:03:27.517Z,972.78
2022-12-19T10:08:28.945Z,972.73
2022-12-19T10:13:30.897Z,972.72
2022-12-19T10:18:32.273Z,972.64
2022-12-19T10:23:34.211Z,972.72
2022-12-19T10:28:36.108Z,972.69
2022-12-19T10:33:37.622Z,972.67
2022-12-19T10:38:40.152Z,972.59
2022-12-19T10:43:44.300Z,972.55
2022-12-19T10:48:43.307Z,972.4
2022-12-19T10:53:45.212Z,972.25
2022-12-19T10:58:47.210Z,972.13
2022-12-19T11:03:48.995Z,971.98
2022-12-19T11:08:50.964Z,971.86
2022-12-19T11:16:39.310Z,971.82
2022-12-19T11:22:41.275Z,971.86
2022-12-19T11:29:27.970Z,971.91
2022-12-19T11:30:23.483Z,971.79
2022-12-19T11:33:59.700Z,971.67
2022-12-19T11:39:00.878Z,971.52
2022-12-19T11:44:03.019Z,971.63
2022-12-19T11:49:04.803Z,971.68
2022-12-19T11:54:06.105Z,971.66
2022-12-19T11:59:08.013Z,971.64
2022-12-19T12:04:10.193Z,971.6
2022-12-19T12:10:27.958Z,971.52
2022-12-19T12:18:21.711Z,971.45
2022-12-19T12:27:41.183Z,971.43
2022-12-19T12:31:33.539Z,971.4
2022-12-19T12:31:37.717Z,971.34
2022-12-19T12:35:27.837Z,971.3
2022-12-19T12:39:28.194Z,971.35
2022-12-19T12:44:32.613Z,971.32
2022-12-19T12:49:25.077Z,971.4
2022-12-19T12:54:26.498Z,971.5
2022-12-19T12:59:28.532Z,971.35
2022-12-19T13:04:30.595Z,971.38
2022-12-19T13:09:32.192Z,971.54
2022-12-19T13:14:33.864Z,971.38
2022-12-19T13:19:36.049Z,971.29
2022-12-19T13:24:37.462Z,971.22
2022-12-19T13:29:38.969Z,971.05
2022-12-19T13:34:42.699Z,970.95
2022-12-19T13:39:53.317Z,970.82
2022-12-19T13:44:45.089Z,970.89
2022-12-19T13:49:46.605Z,970.97
2022-12-19T13:54:48.678Z,970.93
2022-12-19T13:59:59.925Z,971.06
2022-12-19T14:04:52.902Z,971.12
2022-12-19T14:11:25.507Z,971.12
2022-12-19T14:14:58.121Z,971.27
2022-12-19T14:20:06.836Z,971.27
2022-12-19T14:25:10.185Z,971.4
2022-12-19T14:30:29.456Z,971.46
2022-12-19T14:35:55.380Z,971.47
2022-12-19T14:40:04.136Z,971.37
2022-12-19T14:50:16.740Z,971.23
2022-12-19T14:54:19.647Z,971.3
2022-12-19T14:55:43.259Z,971.13
2022-12-19T15:00:50.798Z,971.15
2022-12-19T15:05:12.185Z,971.09
2022-12-19T15:11:02.240Z,971.06
2022-12-19T15:15:15.681Z,971
2022-12-19T15:20:17.321Z,970.98
2022-12-19T15:30:20.322Z,971.02
2022-12-19T15:35:22.425Z,971.23
2022-12-19T15:40:24.173Z,971.38
2022-12-19T15:45:32.087Z,971.24
2022-12-19T15:50:33.461Z,971.07
2022-12-19T15:55:35.108Z,971.13
2022-12-19T16:00:36.977Z,971.14
2022-12-19T16:05:38.480Z,971.27
2022-12-19T16:10:40.391Z,971.24
2022-12-19T16:25:45.954Z,971.25
2022-12-19T16:40:51.728Z,971.33
2022-12-19T16:50:55.448Z,971.33
2022-12-19T16:55:57.050Z,971.32
2022-12-19T17:11:01.691Z,971.29
2022-12-19T17:21:04.576Z,971.27
2022-12-19T17:26:06.236Z,971.17
2022-12-19T17:36:09.337Z,971.09
2022-12-19T17:41:11.515Z,971.11
2022-12-19T17:46:12.774Z,971.13
2022-12-19T17:51:14.376Z,971.05
2022-12-19T17:56:16.225Z,971.09
2022-12-19T18:01:18.041Z,971.14
2022-12-19T18:06:19.563Z,971.1
2022-12-19T18:11:20.722Z,970.93
2022-12-19T18:16:22.580Z,970.78
2022-12-19T18:21:23.976Z,970.95
2022-12-19T18:26:25.853Z,970.89
2022-12-19T18:31:27.613Z,970.81
2022-12-19T18:36:28.762Z,970.68
2022-12-19T18:41:30.407Z,970.6
2022-12-19T18:46:32.432Z,970.56
2022-12-19T18:51:34.229Z,970.55
2022-12-19T18:56:35.793Z,970.57
2022-12-19T19:01:38.013Z,970.55
2022-12-19T19:06:43.444Z,970.4
2022-12-19T19:11:41.796Z,970.56
2022-12-19T19:16:43.764Z,970.6
2022-12-19T19:21:45.543Z,970.57
2022-12-19T19:26:47.584Z,970.56
2022-12-19T19:31:48.977Z,970.5
2022-12-19T19:36:50.713Z,970.67
2022-12-19T19:41:52.221Z,970.61
2022-12-19T19:46:53.748Z,970.54
2022-12-19T19:52:02.125Z,970.45
2022-12-19T19:56:57.465Z,970.33
2022-12-19T20:01:58.989Z,970.38
2022-12-19T20:07:00.802Z,970.44
2022-12-19T20:12:02.769Z,970.53
2022-12-19T20:17:03.997Z,970.56
2022-12-19T20:22:05.554Z,970.49
2022-12-19T20:27:07.069Z,970.57
2022-12-19T20:32:08.795Z,970.57
2022-12-19T20:37:10.767Z,970.57
2022-12-19T20:42:12.349Z,970.41
2022-12-19T20:47:13.758Z,970.52
2022-12-19T20:52:15.292Z,970.31
2022-12-19T20:57:16.505Z,970.37
2022-12-19T21:02:17.917Z,970.46
2022-12-19T21:07:19.150Z,970.46
2022-12-19T21:12:20.548Z,970.29
2022-12-19T21:17:22.494Z,970.4
2022-12-19T21:22:24.737Z,970.39
2022-12-19T21:27:25.897Z,970.31
2022-12-19T21:32:27.330Z,970.36
2022-12-19T21:37:28.821Z,970.41
2022-12-19T21:42:30.140Z,970.36
2022-12-19T21:47:31.866Z,970.39
2022-12-19T21:52:33.303Z,970.37
2022-12-19T21:57:34.653Z,970.3
2022-12-19T22:02:36.660Z,970.35
2022-12-19T22:07:38.533Z,970.32
2022-12-19T22:12:40.354Z,970.28
2022-12-19T22:17:42.430Z,970.22
2022-12-19T22:22:43.972Z,970.25
2022-12-19T22:27:45.820Z,970.25
2022-12-19T22:32:47.549Z,970.25
2022-12-19T22:37:49.081Z,970.2
2022-12-19T22:42:50.543Z,970.21
2022-12-19T22:47:52.213Z,970.15
2022-12-19T22:52:53.938Z,970.05
2022-12-19T22:57:56.136Z,970.06
2022-12-19T23:02:58.072Z,970.06
2022-12-19T23:07:59.317Z,970.03
2022-12-19T23:13:00.547Z,970.02
2022-12-19T23:18:02.400Z,970.01
2022-12-19T23:23:03.850Z,969.97
2022-12-19T23:28:05.658Z,969.99
2022-12-19T23:33:07.074Z,970.03
2022-12-19T23:38:09.101Z,969.99
2022-12-19T23:43:11.200Z,969.94
2022-12-19T23:48:13.065Z,969.97
2022-12-19T23:53:14.172Z,969.91
2022-12-19T23:58:20.809Z,969.86
